| Date | Time | Temp. (oF) | Dew Point (oF) | Rel. Hum. (%) | Press. (in.) | Wind Dir. | Wind Speed (mph) | Hourly Rainfall (in.) |
|
|---|---|---|---|---|---|---|---|---|---|
| 1 | 05/28 | 00:00 | 61 | 56 | 86 | 30.04 | NNE | 18 | 0.00 |
| 2 | 05/27 | 23:00 | 64 | 61 | 93 | 29.99 | E | 10 | 0.00 |
| 3 | 05/27 | 22:00 | 68 | 67 | 99 | 29.94 | NNE | 5 | 0.01 |
| 4 | 05/27 | 21:00 | 68 | 66 | 95 | 29.90 | SSW | 0 | 0.59 |
| 5 | 05/27 | 20:00 | 75 | 63 | 67 | 29.85 | NNE | 12 | 0.00 |
| 6 | 05/27 | 19:00 | 83 | 68 | 61 | 29.79 | SSW | 7 | 0.00 |
| 7 | 05/27 | 18:00 | 83 | 67 | 59 | 29.79 | W | 4 | 0.00 |
| 8 | 05/27 | 17:00 | 84 | 65 | 55 | 29.80 | S | 4 | 0.00 |
| 9 | 05/27 | 16:00 | 85 | 68 | 59 | 29.79 | SW | 0 | 0.00 |
| 10 | 05/27 | 15:00 | 83 | 68 | 61 | 29.82 | SSW | 4 | 0.00 |
| 11 | 05/27 | 14:00 | 82 | 71 | 70 | 29.85 | WSW | 9 | 0.00 |
| 12 | 05/27 | 13:00 | 81 | 70 | 71 | 29.87 | WNW | 5 | 0.00 |
| 13 | 05/27 | 12:00 | 79 | 69 | 74 | 29.87 | SSW | 6 | 0.00 |
| 14 | 05/27 | 11:00 | 78 | 69 | 76 | 29.87 | S | 5 | 0.00 |
| 15 | 05/27 | 10:00 | 76 | 71 | 85 | 29.87 | SW | 0 | 0.00 |
| 16 | 05/27 | 09:00 | 73 | 71 | 94 | 29.88 | SW | 0 | 0.00 |
| 17 | 05/27 | 08:00 | 68 | 68 | 100 | 29.88 | SSW | 0 | 0.00 |
| 18 | 05/27 | 07:00 | 66 | 66 | 100 | 29.87 | SW | 0 | 0.00 |
| 19 | 05/27 | 06:00 | 66 | 66 | 100 | 29.86 | SW | 0 | 0.00 |
| 20 | 05/27 | 05:00 | 66 | 66 | 100 | 29.84 | SW | 0 | 0.00 |
| 21 | 05/27 | 04:00 | 66 | 66 | 100 | 29.83 | WSW | 0 | 0.01 |
| 22 | 05/27 | 03:00 | 66 | 66 | 100 | 29.82 | S | 0 | 0.01 |
| 23 | 05/27 | 02:00 | 66 | 65 | 99 | 29.84 | SSW | 0 | 0.01 |
| 24 | 05/27 | 01:00 | 67 | 66 | 98 | 29.85 | NW | 0 | 0.00 |